Orland, CA (95963)

6:01 PM PDT on August 27, 2014 (GMT -0700)
MOORE FARMS | Change Station
CLOSE
Current Station
Personal Weather Station
Location: Orland, CA
Elevation: 200 ft
Nearby Weather Stations

Elev 200 ft 39.78 °N, 122.10 °W | Updated 48 seconds ago

Clear
Clear
93.7 °F
Feels Like 90 °F
N
4.0
Wind Variable Wind from SSW
Gusts 6.0 mph

Today
High -- | Low -- °F
--% Chance of Precip.
Yesterday
High -- | Low -- °F
Precip. -- in
6:32 AM 7:47 PM
Waxing Crescent, 5% visible
Pressure 29.93 in
Visibility 25.0 miles
Clouds Few 7000 ft
Heat Index 90 °F
Dew Point 49 °F
Humidity 22%
Rainfall 0.00 in
Snow Depth Not available.
UV 2 out of 12
Pollen 8.50 out of 12
Air Quality Not available.
Flu Activity Not available.
METAR KCIC 280050Z 14006KT 25SM FEW070 34/12 A2993

More Conditions Fewer Conditions

Pressure 29.93 in
Visibility 25.0 miles
Clouds Few 7000 ft
Heat Index 90 °F
Dew Point 49 °F
Humidity 22%
Rainfall 0.00 in
Snow Depth Not available.
UV 2 out of 12
Pollen 8.50 out of 12
Air Quality Not available.
Flu Activity Not available.
METAR KCIC 280050Z 14006KT 25SM FEW070 34/12 A2993

More Conditions Fewer Conditions

10-Day Weather Forecast

Almanac

Astronomy

Aug. 27, 2014 Rise Set
Actual Time 6:32 AM PDT 7:47 PM PDT
Civil Twilight 6:04 AM PDT 8:15 PM PDT
Nautical Twilight 5:30 AM PDT 8:48 PM PDT
Astronomical Twilight 4:55 AM PDT 9:23 PM PDT
Moon 8:33 AM PDT (8/27) 8:43 PM PDT (8/27)
Length of Visible Light 14h 11m
Length of Day
13h 15m
Tomorrow will be 2m 28s shorter.
Waxing Crescent, 5% of the Moon is Illuminated
Today
Waxing Crescent
Sep 2
First Quarter
Sep 8
Full
Sep 15
Last Quarter
Sep 24
New

Today's Extremes

State Highs State Lows

Community

WunderPhotos

Upload Photos

1,747,843 photos uploaded!

Nearby

Air Quality

  Air Quality AQ Index Pollutant
Yesterday Moderate
OZONE
Wednesday Moderate
OZONE
Thursday Moderate
OZONE
Friday Moderate
OZONE
Saturday Moderate
OZONE

Snow Depth

Station Depth Elevation
CSS Lab 0 in 6900 ft
Adin Mountain 0 in 6200 ft
Hagan's Meadow 0 in 8000 ft
Summit Meadow 0 in 9122 ft
Leavitt Meadows 0 in 7200 ft

Earthquake Activity

City Distance Mag. Time & Date
Napa, California 104 miles 2.6 11:57 AM PDT
2014-08-27
The Geysers, California 73 miles 2.6 7:42 AM PDT
2014-08-27
Napa, California 104 miles 2.5 10:56 AM PDT
2014-08-26
Napa, California 104 miles 3.0 6:45 AM PDT
2014-08-26
Minimum magnitude displayed is 2.5.

Coastal Water Temperatures

Place Temperature
No Stations Reporting

Nearby Weather Stations